sensor_id;sensor_type;location;lat;lon;timestamp;pressure;altitude;pressure_sealevel;temperature;humidity
43147;BME280;28752;48.266;7.402;2023-05-16T02:16:24;99153.53;;;14.56;71.94
43147;BME280;28752;48.266;7.402;2023-05-16T02:18:50;99155.38;;;14.55;72.06
43147;BME280;28752;48.266;7.402;2023-05-16T02:21:15;99156.28;;;14.48;72.25
43147;BME280;28752;48.266;7.402;2023-05-16T02:23:40;99159.00;;;14.39;72.39
43147;BME280;28752;48.266;7.402;2023-05-16T02:26:06;99160.47;;;14.42;72.97
43147;BME280;28752;48.266;7.402;2023-05-16T02:28:31;99157.75;;;14.50;72.78
43147;BME280;28752;48.266;7.402;2023-05-16T02:31:00;99151.91;;;14.55;72.77
43147;BME280;28752;48.266;7.402;2023-05-16T02:33:26;99153.25;;;14.51;73.04
43147;BME280;28752;48.266;7.402;2023-05-16T02:35:53;99156.28;;;14.48;73.12
43147;BME280;28752;48.266;7.402;2023-05-16T02:38:18;99151.84;;;14.40;73.09
43147;BME280;28752;48.266;7.402;2023-05-16T02:40:46;99160.06;;;14.53;73.18
43147;BME280;28752;48.266;7.402;2023-05-16T02:43:11;99160.88;;;14.31;72.70
43147;BME280;28752;48.266;7.402;2023-05-16T02:45:37;99157.97;;;14.40;72.70
43147;BME280;28752;48.266;7.402;2023-05-16T02:48:02;99152.66;;;14.40;72.72
43147;BME280;28752;48.266;7.402;2023-05-16T02:50:28;99158.34;;;14.37;72.48
43147;BME280;28752;48.266;7.402;2023-05-16T02:52:53;99161.97;;;14.45;72.23
43147;BME280;28752;48.266;7.402;2023-05-16T02:55:18;99157.94;;;14.49;72.04
43147;BME280;28752;48.266;7.402;2023-05-16T02:57:44;99159.94;;;14.47;72.06
43147;BME280;28752;48.266;7.402;2023-05-16T03:00:10;99156.28;;;14.48;72.74
43147;BME280;28752;48.266;7.402;2023-05-16T03:02:35;99162.59;;;14.47;71.63
43147;BME280;28752;48.266;7.402;2023-05-16T03:05:01;99163.66;;;14.37;72.20
43147;BME280;28752;48.266;7.402;2023-05-16T03:07:27;99162.41;;;14.48;73.06
43147;BME280;28752;48.266;7.402;2023-05-16T03:09:52;99159.28;;;14.45;71.90
43147;BME280;28752;48.266;7.402;2023-05-16T03:12:17;99156.69;;;14.36;71.58
43147;BME280;28752;48.266;7.402;2023-05-16T03:14:43;99160.72;;;14.32;71.65
43147;BME280;28752;48.266;7.402;2023-05-16T03:17:08;99162.41;;;14.48;71.90
43147;BME280;28752;48.266;7.402;2023-05-16T03:19:34;99162.59;;;14.47;72.23
43147;BME280;28752;48.266;7.402;2023-05-16T03:21:59;99167.72;;;14.56;72.09
43147;BME280;28752;48.266;7.402;2023-05-16T03:24:24;99165.09;;;14.48;72.32
43147;BME280;28752;48.266;7.402;2023-05-16T03:26:50;99165.75;;;14.50;71.96
43147;BME280;28752;48.266;7.402;2023-05-16T03:29:16;99164.44;;;14.46;71.45
43147;BME280;28752;48.266;7.402;2023-05-16T03:31:41;99165.09;;;14.48;71.85
43147;BME280;28752;48.266;7.402;2023-05-16T03:34:07;99163.81;;;14.44;71.82
43147;BME280;28752;48.266;7.402;2023-05-16T03:36:32;99169.66;;;14.39;71.71
43147;BME280;28752;48.266;7.402;2023-05-16T03:38:57;99165.94;;;14.49;72.40
43147;BME280;28752;48.266;7.402;2023-05-16T03:41:23;99173.84;;;14.57;72.04
43147;BME280;28752;48.266;7.402;2023-05-16T03:43:48;99166.56;;;14.51;71.51
43147;BME280;28752;48.266;7.402;2023-05-16T03:46:13;99170.06;;;14.51;71.06
43147;BME280;28752;48.266;7.402;2023-05-16T03:48:39;99170.72;;;14.53;71.49
43147;BME280;28752;48.266;7.402;2023-05-16T03:51:04;99174.22;;;14.54;70.71
43147;BME280;28752;48.266;7.402;2023-05-16T03:53:30;99177.88;;;14.53;71.30
43147;BME280;28752;48.266;7.402;2023-05-16T03:55:55;99178.28;;;14.42;71.31
43147;BME280;28752;48.266;7.402;2023-05-16T03:58:20;99181.41;;;14.45;71.95
43147;BME280;28752;48.266;7.402;2023-05-16T04:00:46;99176.22;;;14.52;71.10
43147;BME280;28752;48.266;7.402;2023-05-16T04:03:11;99173.25;;;14.47;71.21
43147;BME280;28752;48.266;7.402;2023-05-16T04:05:36;99186.72;;;14.53;70.52
43147;BME280;28752;48.266;7.402;2023-05-16T04:08:02;99190.44;;;14.44;71.07
43147;BME280;28752;48.266;7.402;2023-05-16T04:10:28;99187.25;;;14.49;70.54
43147;BME280;28752;48.266;7.402;2023-05-16T04:12:53;99190.72;;;14.49;70.67
43147;BME280;28752;48.266;7.402;2023-05-16T04:15:19;99198.19;;;14.54;69.71
43147;BME280;28752;48.266;7.402;2023-05-16T04:17:44;99188.88;;;14.50;69.99
43147;BME280;28752;48.266;7.402;2023-05-16T04:20:10;99189.06;;;14.48;70.51
43147;BME280;28752;48.266;7.402;2023-05-16T04:22:36;99194.81;;;14.37;70.42
43147;BME280;28752;48.266;7.402;2023-05-16T04:25:01;99200.59;;;14.40;70.19
43147;BME280;28752;48.266;7.402;2023-05-16T04:27:26;99196.47;;;14.38;70.30
43147;BME280;28752;48.266;7.402;2023-05-16T04:29:52;99199.88;;;14.47;70.57
43147;BME280;28752;48.266;7.402;2023-05-16T04:32:17;99198.78;;;14.41;70.72
43147;BME280;28752;48.266;7.402;2023-05-16T04:34:44;99198.63;;;14.34;70.70
43147;BME280;28752;48.266;7.402;2023-05-16T04:37:09;99201.47;;;14.33;70.22
43147;BME280;28752;48.266;7.402;2023-05-16T04:39:35;99206.34;;;14.29;69.91
43147;BME280;28752;48.266;7.402;2023-05-16T04:42:00;99200.88;;;14.22;70.82
43147;BME280;28752;48.266;7.402;2023-05-16T04:44:26;99207.91;;;14.15;72.46
43147;BME280;28752;48.266;7.402;2023-05-16T04:46:52;99205.44;;;14.14;73.30
43147;BME280;28752;48.266;7.402;2023-05-16T04:49:18;99200.84;;;14.31;72.43
43147;BME280;28752;48.266;7.402;2023-05-16T04:51:43;99197.09;;;14.17;72.55
43147;BME280;28752;48.266;7.402;2023-05-16T04:54:09;99201.97;;;14.36;71.11
43147;BME280;28752;48.266;7.402;2023-05-16T04:56:35;99199.16;;;14.30;71.19
43147;BME280;28752;48.266;7.402;2023-05-16T04:59:00;99193.38;;;14.26;70.33
43147;BME280;28752;48.266;7.402;2023-05-16T05:01:25;99206.78;;;14.10;70.09
43147;BME280;28752;48.266;7.402;2023-05-16T05:03:51;99208.94;;;14.37;69.46
43147;BME280;28752;48.266;7.402;2023-05-16T05:06:16;99210.25;;;14.42;69.44
43147;BME280;28752;48.266;7.402;2023-05-16T05:08:41;99214.84;;;14.25;69.81
43147;BME280;28752;48.266;7.402;2023-05-16T05:11:07;99223.03;;;14.23;69.66
43147;BME280;28752;48.266;7.402;2023-05-16T05:13:32;99216.53;;;14.49;69.74
43147;BME280;28752;48.266;7.402;2023-05-16T05:15:57;99224.81;;;14.54;69.97
43147;BME280;28752;48.266;7.402;2023-05-16T05:18:23;99219.50;;;14.62;69.06
43147;BME280;28752;48.266;7.402;2023-05-16T05:20:49;99213.31;;;14.62;68.11
43147;BME280;28752;48.266;7.402;2023-05-16T05:23:14;99212.50;;;14.53;68.19
43147;BME280;28752;48.266;7.402;2023-05-16T05:25:39;99216.66;;;14.64;67.66
43147;BME280;28752;48.266;7.402;2023-05-16T05:28:05;99215.81;;;14.63;67.49
43147;BME280;28752;48.266;7.402;2023-05-16T05:30:31;99217.13;;;14.67;67.27
43147;BME280;28752;48.266;7.402;2023-05-16T05:32:56;99220.13;;;14.64;67.42
43147;BME280;28752;48.266;7.402;2023-05-16T05:35:21;99216.81;;;14.62;68.00
43147;BME280;28752;48.266;7.402;2023-05-16T05:37:47;99219.97;;;14.66;68.15
43147;BME280;28752;48.266;7.402;2023-05-16T05:40:12;99222.16;;;14.62;68.01
43147;BME280;28752;48.266;7.402;2023-05-16T05:42:38;99224.47;;;14.65;68.41
43147;BME280;28752;48.266;7.402;2023-05-16T05:45:03;99228.56;;;14.45;68.87
43147;BME280;28752;48.266;7.402;2023-05-16T05:47:29;99217.66;;;14.54;68.87
43147;BME280;28752;48.266;7.402;2023-05-16T05:49:55;99235.47;;;14.62;70.42
43147;BME280;28752;48.266;7.402;2023-05-16T05:52:20;99229.78;;;14.65;72.26
43147;BME280;28752;48.266;7.402;2023-05-16T05:54:47;99228.31;;;14.63;72.95
43147;BME280;28752;48.266;7.402;2023-05-16T05:57:12;99234.94;;;14.58;73.19
43147;BME280;28752;48.266;7.402;2023-05-16T05:59:38;99234.22;;;14.42;72.75
43147;BME280;28752;48.266;7.402;2023-05-16T06:02:03;99237.19;;;14.47;72.79
43147;BME280;28752;48.266;7.402;2023-05-16T06:04:28;99233.69;;;14.46;72.79
43147;BME280;28752;48.266;7.402;2023-05-16T06:06:54;99232.53;;;14.49;72.39
43147;BME280;28752;48.266;7.402;2023-05-16T06:09:21;99240.63;;;14.55;71.94
43147;BME280;28752;48.266;7.402;2023-05-16T06:11:48;99239.63;;;14.56;71.72
43147;BME280;28752;48.266;7.402;2023-05-16T06:14:13;99239.25;;;14.68;71.27
43147;BME280;28752;48.266;7.402;2023-05-16T06:16:40;99237.06;;;14.71;70.65
43147;BME280;28752;48.266;7.402;2023-05-16T06:19:06;99237.00;;;14.80;69.93
43147;BME280;28752;48.266;7.402;2023-05-16T06:21:31;99250.03;;;14.74;69.33
43147;BME280;28752;48.266;7.402;2023-05-16T06:23:57;99252.22;;;14.71;69.79
43147;BME280;28752;48.266;7.402;2023-05-16T06:26:23;99251.47;;;14.62;69.75
43147;BME280;28752;48.266;7.402;2023-05-16T06:28:48;99253.84;;;14.49;70.03
43147;BME280;28752;48.266;7.402;2023-05-16T06:31:14;99254.41;;;14.67;69.68
43147;BME280;28752;48.266;7.402;2023-05-16T06:33:39;99259.56;;;14.69;70.04
43147;BME280;28752;48.266;7.402;2023-05-16T06:36:05;99254.38;;;14.44;69.74
43147;BME280;28752;48.266;7.402;2023-05-16T06:38:30;99253.50;;;14.52;69.84
43147;BME280;28752;48.266;7.402;2023-05-16T06:40:56;99257.06;;;14.36;70.01
43147;BME280;28752;48.266;7.402;2023-05-16T06:43:21;99253.34;;;14.45;69.78
43147;BME280;28752;48.266;7.402;2023-05-16T06:45:47;99257.84;;;14.45;69.56
43147;BME280;28752;48.266;7.402;2023-05-16T06:48:13;99257.38;;;14.41;70.07
43147;BME280;28752;48.266;7.402;2023-05-16T06:50:39;99260.75;;;14.35;69.87
43147;BME280;28752;48.266;7.402;2023-05-16T06:53:05;99267.69;;;14.44;69.29
43147;BME280;28752;48.266;7.402;2023-05-16T06:55:32;99272.69;;;14.39;69.82
43147;BME280;28752;48.266;7.402;2023-05-16T06:57:57;99264.28;;;14.27;69.42
43147;BME280;28752;48.266;7.402;2023-05-16T07:00:22;99278.72;;;14.33;69.87
43147;BME280;28752;48.266;7.402;2023-05-16T07:02:48;99274.41;;;14.32;69.48
43147;BME280;28752;48.266;7.402;2023-05-16T07:05:13;99278.25;;;14.29;69.95
43147;BME280;28752;48.266;7.402;2023-05-16T07:07:39;99281.69;;;14.38;70.23
43147;BME280;28752;48.266;7.402;2023-05-16T07:10:05;99281.03;;;14.36;69.83
43147;BME280;28752;48.266;7.402;2023-05-16T07:12:31;99286.44;;;14.51;70.15
43147;BME280;28752;48.266;7.402;2023-05-16T07:14:56;99291.38;;;14.31;71.27
43147;BME280;28752;48.266;7.402;2023-05-16T07:17:21;99287.75;;;14.24;71.34
43147;BME280;28752;48.266;7.402;2023-05-16T07:19:48;99296.78;;;14.14;71.63
43147;BME280;28752;48.266;7.402;2023-05-16T07:22:13;99289.34;;;14.01;72.33
43147;BME280;28752;48.266;7.402;2023-05-16T07:24:38;99300.00;;;14.01;72.13
43147;BME280;28752;48.266;7.402;2023-05-16T07:27:04;99302.34;;;13.88;72.99
43147;BME280;28752;48.266;7.402;2023-05-16T07:29:29;99310.50;;;13.86;73.06
43147;BME280;28752;48.266;7.402;2023-05-16T07:31:55;99301.84;;;13.84;72.77
43147;BME280;28752;48.266;7.402;2023-05-16T07:34:20;99300.34;;;13.98;73.16
43147;BME280;28752;48.266;7.402;2023-05-16T07:36:45;99301.31;;;13.97;70.94
43147;BME280;28752;48.266;7.402;2023-05-16T07:39:11;99305.44;;;14.08;71.77
43147;BME280;28752;48.266;7.402;2023-05-16T07:41:36;99314.47;;;13.99;70.40
43147;BME280;28752;48.266;7.402;2023-05-16T07:44:02;99313.31;;;13.93;70.02
43147;BME280;28752;48.266;7.402;2023-05-16T07:46:27;99310.28;;;14.04;70.34
43147;BME280;28752;48.266;7.402;2023-05-16T07:48:52;99316.63;;;14.03;69.90
43147;BME280;28752;48.266;7.402;2023-05-16T07:51:18;99313.09;;;14.11;70.13
43147;BME280;28752;48.266;7.402;2023-05-16T07:53:43;99309.09;;;14.07;69.71
43147;BME280;28752;48.266;7.402;2023-05-16T07:56:08;99324.69;;;14.27;69.04
43147;BME280;28752;48.266;7.402;2023-05-16T07:58:35;99326.88;;;14.15;69.29
43147;BME280;28752;48.266;7.402;2023-05-16T08:01:00;99322.19;;;14.25;68.86
43147;BME280;28752;48.266;7.402;2023-05-16T08:03:25;99324.22;;;14.15;68.94
43147;BME280;28752;48.266;7.402;2023-05-16T08:05:51;99331.22;;;14.16;69.15
43147;BME280;28752;48.266;7.402;2023-05-16T08:08:17;99333.19;;;14.22;69.26
43147;BME280;28752;48.266;7.402;2023-05-16T08:10:42;99330.34;;;14.24;69.11
43147;BME280;28752;48.266;7.402;2023-05-16T08:13:08;99333.13;;;14.38;69.02
43147;BME280;28752;48.266;7.402;2023-05-16T08:15:33;99335.53;;;14.17;69.86
43147;BME280;28752;48.266;7.402;2023-05-16T08:17:59;99342.38;;;14.11;70.38
43147;BME280;28752;48.266;7.402;2023-05-16T08:20:25;99349.88;;;14.08;69.06
43147;BME280;28752;48.266;7.402;2023-05-16T08:22:51;99351.34;;;14.10;68.80
43147;BME280;28752;48.266;7.402;2023-05-16T08:25:16;99350.06;;;14.06;68.68
43147;BME280;28752;48.266;7.402;2023-05-16T08:27:44;99345.22;;;14.10;68.72
43147;BME280;28752;48.266;7.402;2023-05-16T08:30:10;99343.25;;;13.95;69.18
43147;BME280;28752;48.266;7.402;2023-05-16T08:32:36;99348.72;;;13.94;69.25
43147;BME280;28752;48.266;7.402;2023-05-16T08:35:01;99345.91;;;14.03;68.58
43147;BME280;28752;48.266;7.402;2023-05-16T08:37:26;99350.56;;;14.01;68.42
43147;BME280;28752;48.266;7.402;2023-05-16T08:39:52;99350.56;;;14.01;68.91
43147;BME280;28752;48.266;7.402;2023-05-16T08:42:17;99345.00;;;14.28;67.97
43147;BME280;28752;48.266;7.402;2023-05-16T08:44:43;99346.66;;;14.20;67.70
43147;BME280;28752;48.266;7.402;2023-05-16T08:47:18;99355.13;;;14.32;67.25
43147;BME280;28752;48.266;7.402;2023-05-16T08:49:47;99356.28;;;14.30;67.71
43147;BME280;28752;48.266;7.402;2023-05-16T08:52:13;99358.00;;;14.14;66.91
43147;BME280;28752;48.266;7.402;2023-05-16T08:54:43;99354.66;;;14.20;66.47
43147;BME280;28752;48.266;7.402;2023-05-16T08:57:09;99349.56;;;13.94;66.91
43147;BME280;28752;48.266;7.402;2023-05-16T08:59:35;99356.72;;;14.02;66.86
43147;BME280;28752;48.266;7.402;2023-05-16T09:02:00;99361.19;;;14.10;66.71
43147;BME280;28752;48.266;7.402;2023-05-16T09:04:26;99353.81;;;14.28;66.78
43147;BME280;28752;48.266;7.402;2023-05-16T09:06:52;99359.50;;;14.17;67.13
43147;BME280;28752;48.266;7.402;2023-05-16T09:09:17;99365.13;;;14.30;66.76
43147;BME280;28752;48.266;7.402;2023-05-16T09:11:43;99365.19;;;14.14;66.24
43147;BME280;28752;48.266;7.402;2023-05-16T09:14:09;99355.13;;;14.24;66.35
43147;BME280;28752;48.266;7.402;2023-05-16T09:16:34;99361.97;;;14.35;66.26
43147;BME280;28752;48.266;7.402;2023-05-16T09:19:00;99360.75;;;14.46;66.21
43147;BME280;28752;48.266;7.402;2023-05-16T09:21:28;99359.56;;;14.48;66.48
43147;BME280;28752;48.266;7.402;2023-05-16T09:23:53;99366.28;;;14.28;66.34
43147;BME280;28752;48.266;7.402;2023-05-16T09:26:19;99366.59;;;14.33;66.75
43147;BME280;28752;48.266;7.402;2023-05-16T09:28:46;99364.63;;;14.27;66.89
43147;BME280;28752;48.266;7.402;2023-05-16T09:31:38;99365.03;;;14.47;66.57
43147;BME280;28752;48.266;7.402;2023-05-16T09:34:07;99368.38;;;14.49;66.38
43147;BME280;28752;48.266;7.402;2023-05-16T09:36:33;99364.00;;;14.56;66.13
43147;BME280;28752;48.266;7.402;2023-05-16T09:38:59;99367.19;;;14.60;66.29
43147;BME280;28752;48.266;7.402;2023-05-16T09:41:24;99370.72;;;14.52;66.05
43147;BME280;28752;48.266;7.402;2023-05-16T09:43:50;99369.72;;;14.45;66.65
43147;BME280;28752;48.266;7.402;2023-05-16T09:46:15;99373.94;;;14.31;66.57
43147;BME280;28752;48.266;7.402;2023-05-16T09:48:45;99375.84;;;13.97;67.46
43147;BME280;28752;48.266;7.402;2023-05-16T09:51:11;99380.50;;;14.03;68.00
43147;BME280;28752;48.266;7.402;2023-05-16T09:53:37;99369.53;;;13.98;67.87
43147;BME280;28752;48.266;7.402;2023-05-16T09:56:07;99378.00;;;14.02;68.08
43147;BME280;28752;48.266;7.402;2023-05-16T09:58:34;99383.34;;;13.85;68.11
43147;BME280;28752;48.266;7.402;2023-05-16T10:01:00;99378.91;;;13.70;68.97
43147;BME280;28752;48.266;7.402;2023-05-16T10:03:26;99366.75;;;13.67;68.78
43147;BME280;28752;48.266;7.402;2023-05-16T10:05:53;99386.03;;;13.69;67.80
43147;BME280;28752;48.266;7.402;2023-05-16T10:08:23;99381.19;;;13.64;67.91
43147;BME280;28752;48.266;7.402;2023-05-16T10:10:58;99388.34;;;13.80;67.99
43147;BME280;28752;48.266;7.402;2023-05-16T10:13:28;99392.81;;;13.80;68.79
43147;BME280;28752;48.266;7.402;2023-05-16T10:15:58;99397.34;;;13.71;69.90
43147;BME280;28752;48.266;7.402;2023-05-16T10:18:29;99392.19;;;13.61;71.29
43147;BME280;28752;48.266;7.402;2023-05-16T10:20:56;99390.34;;;13.37;73.31
43147;BME280;28752;48.266;7.402;2023-05-16T10:23:24;99394.66;;;13.46;73.22
43147;BME280;28752;48.266;7.402;2023-05-16T10:25:50;99395.00;;;13.43;73.36
43147;BME280;28752;48.266;7.402;2023-05-16T10:28:16;99404.59;;;13.28;73.72
43147;BME280;28752;48.266;7.402;2023-05-16T10:30:43;99399.75;;;13.15;75.36
43147;BME280;28752;48.266;7.402;2023-05-16T10:33:13;99410.22;;;13.17;75.59
43147;BME280;28752;48.266;7.402;2023-05-16T10:35:40;99411.72;;;13.11;77.70
43147;BME280;28752;48.266;7.402;2023-05-16T10:38:08;99424.13;;;13.02;80.27
43147;BME280;28752;48.266;7.402;2023-05-16T10:40:34;99420.69;;;12.67;81.52
43147;BME280;28752;48.266;7.402;2023-05-16T10:43:03;99420.19;;;12.64;83.46
43147;BME280;28752;48.266;7.402;2023-05-16T10:45:28;99418.44;;;12.46;84.29
43147;BME280;28752;48.266;7.402;2023-05-16T10:47:56;99412.88;;;12.66;84.26
43147;BME280;28752;48.266;7.402;2023-05-16T10:53:51;99434.06;;;12.23;87.66
43147;BME280;28752;48.266;7.402;2023-05-16T10:56:10;99421.56;;;12.41;87.26
43147;BME280;28752;48.266;7.402;2023-05-16T11:01:21;99429.38;;;12.43;87.25
43147;BME280;28752;48.266;7.402;2023-05-16T11:06:26;99420.66;;;12.59;86.30
43147;BME280;28752;48.266;7.402;2023-05-16T11:11:58;99431.38;;;12.84;83.92
43147;BME280;28752;48.266;7.402;2023-05-16T11:17:10;99420.44;;;12.95;81.43
43147;BME280;28752;48.266;7.402;2023-05-16T11:25:04;99424.69;;;13.22;77.33
43147;BME280;28752;48.266;7.402;2023-05-16T11:27:51;99422.72;;;13.24;75.95
43147;BME280;28752;48.266;7.402;2023-05-16T11:30:16;99421.53;;;13.19;75.92
43147;BME280;28752;48.266;7.402;2023-05-16T11:32:44;99420.66;;;13.10;74.70
43147;BME280;28752;48.266;7.402;2023-05-16T11:35:13;99428.47;;;13.11;74.19
43147;BME280;28752;48.266;7.402;2023-05-16T11:37:39;99419.19;;;13.15;74.26
43147;BME280;28752;48.266;7.402;2023-05-16T11:40:06;99426.53;;;13.30;73.52
43147;BME280;28752;48.266;7.402;2023-05-16T11:42:40;99425.22;;;13.34;72.70
43147;BME280;28752;48.266;7.402;2023-05-16T11:45:24;99408.47;;;13.33;72.56
43147;BME280;28752;48.266;7.402;2023-05-16T11:47:50;99418.13;;;13.59;72.00
43147;BME280;28752;48.266;7.402;2023-05-16T11:50:20;99420.09;;;13.49;71.33
43147;BME280;28752;48.266;7.402;2023-05-16T11:52:49;99431.72;;;13.48;72.18
43147;BME280;28752;48.266;7.402;2023-05-16T11:55:19;99428.25;;;13.56;71.45
43147;BME280;28752;48.266;7.402;2023-05-16T11:57:47;99436.56;;;13.53;70.30
43147;BME280;28752;48.266;7.402;2023-05-16T12:00:15;99429.06;;;13.48;70.37
43147;BME280;28752;48.266;7.402;2023-05-16T12:02:44;99432.75;;;13.55;70.20
43147;BME280;28752;48.266;7.402;2023-05-16T12:05:10;99433.72;;;13.54;69.79
43147;BME280;28752;48.266;7.402;2023-05-16T12:07:36;99437.06;;;13.64;69.80
43147;BME280;28752;48.266;7.402;2023-05-16T12:10:10;99438.88;;;13.56;69.98
43147;BME280;28752;48.266;7.402;2023-05-16T12:12:37;99450.19;;;13.41;70.37
43147;BME280;28752;48.266;7.402;2023-05-16T12:15:04;99454.69;;;13.49;70.93
43147;BME280;28752;48.266;7.402;2023-05-16T12:17:37;99453.38;;;13.53;71.08
43147;BME280;28752;48.266;7.402;2023-05-16T12:20:04;99461.25;;;13.28;70.78
43147;BME280;28752;48.266;7.402;2023-05-16T12:22:31;99465.66;;;13.46;71.06
43147;BME280;28752;48.266;7.402;2023-05-16T12:25:00;99451.25;;;13.22;70.50
43147;BME280;28752;48.266;7.402;2023-05-16T12:27:41;99465.25;;;13.32;71.19
43147;BME280;28752;48.266;7.402;2023-05-16T12:30:08;99473.22;;;13.24;71.72
43147;BME280;28752;48.266;7.402;2023-05-16T12:32:36;99470.72;;;13.23;71.52
43147;BME280;28752;48.266;7.402;2023-05-16T12:35:01;99475.19;;;13.22;71.64
43147;BME280;28752;48.266;7.402;2023-05-16T12:37:26;99482.50;;;13.20;71.98
43147;BME280;28752;48.266;7.402;2023-05-16T12:39:58;99486.94;;;13.03;72.11
43147;BME280;28752;48.266;7.402;2023-05-16T12:42:26;99489.06;;;13.00;72.32
43147;BME280;28752;48.266;7.402;2023-05-16T12:44:54;99489.81;;;13.18;71.93
43147;BME280;28752;48.266;7.402;2023-05-16T12:47:20;99490.59;;;13.02;71.10
43147;BME280;28752;48.266;7.402;2023-05-16T12:49:46;99493.16;;;13.20;70.19
43147;BME280;28752;48.266;7.402;2023-05-16T12:52:18;99491.94;;;13.14;69.36
43147;BME280;28752;48.266;7.402;2023-05-16T12:54:45;99496.06;;;13.35;69.58
43147;BME280;28752;48.266;7.402;2023-05-16T12:57:11;99487.25;;;13.51;68.11
43147;BME280;28752;48.266;7.402;2023-05-16T12:59:36;99500.88;;;13.40;67.80
43147;BME280;28752;48.266;7.402;2023-05-16T13:02:02;99495.94;;;13.61;67.85
43147;BME280;28752;48.266;7.402;2023-05-16T13:04:28;99498.25;;;13.64;67.50
43147;BME280;28752;48.266;7.402;2023-05-16T13:06:53;99505.59;;;13.71;67.61
43147;BME280;28752;48.266;7.402;2023-05-16T13:09:18;99506.41;;;13.55;66.48
43147;BME280;28752;48.266;7.402;2023-05-16T13:11:45;99505.38;;;13.56;67.09
43147;BME280;28752;48.266;7.402;2023-05-16T13:14:10;99507.91;;;13.65;66.84
43147;BME280;28752;48.266;7.402;2023-05-16T13:16:35;99513.25;;;13.65;66.38
43147;BME280;28752;48.266;7.402;2023-05-16T13:19:01;99526.69;;;13.56;66.32
43147;BME280;28752;48.266;7.402;2023-05-16T13:21:26;99516.53;;;13.51;65.90
43147;BME280;28752;48.266;7.402;2023-05-16T13:23:54;99515.16;;;13.39;65.92
43147;BME280;28752;48.266;7.402;2023-05-16T13:26:20;99512.22;;;13.50;66.20
43147;BME280;28752;48.266;7.402;2023-05-16T13:28:46;99523.09;;;13.30;65.81
43147;BME280;28752;48.266;7.402;2023-05-16T13:31:11;99525.06;;;13.20;66.12
43147;BME280;28752;48.266;7.402;2023-05-16T13:33:37;99515.69;;;13.50;66.57
43147;BME280;28752;48.266;7.402;2023-05-16T13:36:02;99519.44;;;13.31;65.70
43147;BME280;28752;48.266;7.402;2023-05-16T13:38:28;99519.75;;;13.28;65.98
43147;BME280;28752;48.266;7.402;2023-05-16T13:40:53;99518.31;;;13.34;65.65
43147;BME280;28752;48.266;7.402;2023-05-16T13:43:18;99520.06;;;13.17;65.58
43147;BME280;28752;48.266;7.402;2023-05-16T13:45:44;99532.03;;;13.21;65.74
43147;BME280;28752;48.266;7.402;2023-05-16T13:48:09;99535.25;;;13.33;65.84
43147;BME280;28752;48.266;7.402;2023-05-16T13:50:35;99536.00;;;13.17;65.38
43147;BME280;28752;48.266;7.402;2023-05-16T13:53:01;99540.03;;;13.21;66.34
43147;BME280;28752;48.266;7.402;2023-05-16T13:55:26;99536.88;;;13.26;66.24
43147;BME280;28752;48.266;7.402;2023-05-16T13:57:52;99545.94;;;13.41;66.18
43147;BME280;28752;48.266;7.402;2023-05-16T14:00:17;99550.84;;;13.28;65.67
43147;BME280;28752;48.266;7.402;2023-05-16T14:02:43;99552.59;;;13.45;65.47
43147;BME280;28752;48.266;7.402;2023-05-16T14:05:09;99546.81;;;13.24;65.38
43147;BME280;28752;48.266;7.402;2023-05-16T14:07:34;99551.75;;;13.45;65.38
43147;BME280;28752;48.266;7.402;2023-05-16T14:09:59;99549.41;;;13.33;65.16
43147;BME280;28752;48.266;7.402;2023-05-16T14:12:25;99556.91;;;13.46;65.28
43147;BME280;28752;48.266;7.402;2023-05-16T14:14:50;99554.63;;;13.17;64.78
43147;BME280;28752;48.266;7.402;2023-05-16T14:17:16;99547.69;;;13.32;65.48
43147;BME280;28752;48.266;7.402;2023-05-16T14:19:41;99550.78;;;13.54;64.92
43147;BME280;28752;48.266;7.402;2023-05-16T14:22:06;99557.13;;;13.53;64.04
43147;BME280;28752;48.266;7.402;2023-05-16T14:24:32;99556.31;;;13.61;63.62
43147;BME280;28752;48.266;7.402;2023-05-16T14:26:58;99551.09;;;13.51;62.68
43147;BME280;28752;48.266;7.402;2023-05-16T14:29:24;99550.66;;;13.72;62.18
43147;BME280;28752;48.266;7.402;2023-05-16T14:31:50;99544.84;;;13.77;61.46
43147;BME280;28752;48.266;7.402;2023-05-16T14:34:15;99551.69;;;13.79;61.55
43147;BME280;28752;48.266;7.402;2023-05-16T14:36:40;99553.16;;;13.65;61.04
43147;BME280;28752;48.266;7.402;2023-05-16T14:39:06;99552.81;;;13.77;60.75
43147;BME280;28752;48.266;7.402;2023-05-16T14:41:32;99563.09;;;13.63;60.30
43147;BME280;28752;48.266;7.402;2023-05-16T14:43:57;99562.97;;;13.73;59.64
43147;BME280;28752;48.266;7.402;2023-05-16T14:46:23;99569.31;;;13.89;59.54
43147;BME280;28752;48.266;7.402;2023-05-16T14:48:48;99562.31;;;13.88;59.16
43147;BME280;28752;48.266;7.402;2023-05-16T14:51:13;99574.16;;;13.85;59.24
43147;BME280;28752;48.266;7.402;2023-05-16T14:53:39;99568.31;;;13.81;59.39
43147;BME280;28752;48.266;7.402;2023-05-16T14:56:04;99565.91;;;13.54;58.96
43147;BME280;28752;48.266;7.402;2023-05-16T14:58:30;99565.59;;;13.57;58.66
43147;BME280;28752;48.266;7.402;2023-05-16T15:00:55;99568.41;;;13.47;58.94
43147;BME280;28752;48.266;7.402;2023-05-16T15:03:21;99565.16;;;13.78;58.27
43147;BME280;28752;48.266;7.402;2023-05-16T15:05:46;99565.97;;;13.78;57.54
43147;BME280;28752;48.266;7.402;2023-05-16T15:08:12;99573.81;;;13.88;57.03
43147;BME280;28752;48.266;7.402;2023-05-16T15:10:37;99569.81;;;13.84;57.63
43147;BME280;28752;48.266;7.402;2023-05-16T15:13:02;99570.66;;;13.93;57.29
43147;BME280;28752;48.266;7.402;2023-05-16T15:15:28;99581.97;;;13.95;56.99
43147;BME280;28752;48.266;7.402;2023-05-16T15:17:53;99570.59;;;13.60;57.02
43147;BME280;28752;48.266;7.402;2023-05-16T15:20:19;99580.72;;;13.56;56.72
43147;BME280;28752;48.266;7.402;2023-05-16T15:22:44;99572.75;;;13.64;56.06
43147;BME280;28752;48.266;7.402;2023-05-16T15:25:10;99577.47;;;13.79;56.22
43147;BME280;28752;48.266;7.402;2023-05-16T15:27:35;99579.75;;;13.74;56.23
43147;BME280;28752;48.266;7.402;2023-05-16T15:30:01;99578.88;;;13.57;56.02